createdAt,value
2022-08-03T00:01:35.797Z,11.88
2022-08-03T00:04:03.609Z,7.82
2022-08-03T00:06:36.903Z,8.35
2022-08-03T00:09:06.592Z,11.23
2022-08-03T00:11:34.580Z,8.20
2022-08-03T00:14:02.504Z,9.02
2022-08-03T00:16:30.309Z,6.78
2022-08-03T00:18:58.134Z,7.80
2022-08-03T00:21:28.736Z,6.85
2022-08-03T00:23:57.914Z,7.38
2022-08-03T00:26:25.664Z,9.05
2022-08-03T00:28:53.433Z,8.60
2022-08-03T00:31:23.129Z,8.95
2022-08-03T00:34:09.103Z,9.20
2022-08-03T00:36:36.892Z,6.80
2022-08-03T00:39:06.155Z,8.45
2022-08-03T00:41:33.944Z,8.60
2022-08-03T00:44:01.820Z,7.88
2022-08-03T00:46:29.616Z,6.68
2022-08-03T00:48:57.532Z,8.68
2022-08-03T00:51:25.446Z,6.28
2022-08-03T00:53:53.292Z,7.80
2022-08-03T00:56:22.495Z,9.48
2022-08-03T00:58:51.208Z,6.57
2022-08-03T01:01:19.043Z,5.97
2022-08-03T01:03:47.434Z,7.70
2022-08-03T01:06:19.807Z,6.38
2022-08-03T01:08:53.460Z,8.45
2022-08-03T01:12:00.310Z,9.02
2022-08-03T01:14:34.852Z,7.32
2022-08-03T01:17:12.112Z,6.55
2022-08-03T01:19:47.638Z,7.45
2022-08-03T01:22:56.886Z,5.80
2022-08-03T01:25:36.309Z,7.72
2022-08-03T01:28:20.956Z,7.25
2022-08-03T01:30:53.650Z,5.35
2022-08-03T01:33:26.963Z,8.60
2022-08-03T01:36:00.670Z,6.45
2022-08-03T01:38:33.084Z,5.00
2022-08-03T01:41:05.457Z,7.68
2022-08-03T01:44:28.092Z,7.45
2022-08-03T01:46:25.689Z,8.30
2022-08-03T01:48:55.238Z,6.65
2022-08-03T01:51:24.760Z,9.68
2022-08-03T01:54:13.577Z,7.63
2022-08-03T01:56:43.680Z,7.57
2022-08-03T01:59:15.518Z,8.93
2022-08-03T02:02:15.494Z,9.70
2022-08-03T02:04:35.677Z,9.98
2022-08-03T02:07:04.107Z,10.98
2022-08-03T02:09:33.057Z,9.55
2022-08-03T02:12:01.874Z,12.20
2022-08-03T02:14:30.890Z,8.05
2022-08-03T02:17:00.694Z,13.15
2022-08-03T02:19:35.270Z,10.30
2022-08-03T02:22:04.615Z,12.10
2022-08-03T02:24:33.050Z,12.13
2022-08-03T02:27:02.147Z,13.57
2022-08-03T02:29:40.050Z,13.18
2022-08-03T02:32:15.296Z,10.88
2022-08-03T02:34:47.422Z,8.20
2022-08-03T02:37:19.231Z,11.68
2022-08-03T02:39:49.006Z,9.55
2022-08-03T02:42:20.006Z,7.47
2022-08-03T02:44:52.092Z,8.75
2022-08-03T02:47:22.309Z,6.57
2022-08-03T02:49:52.641Z,7.07
2022-08-03T02:52:24.316Z,7.85
2022-08-03T02:54:55.786Z,5.72
2022-08-03T02:57:25.925Z,6.50
2022-08-03T02:59:56.304Z,5.85
2022-08-03T03:02:26.438Z,5.70
2022-08-03T03:05:56.803Z,6.68
2022-08-03T03:07:52.099Z,7.22
2022-08-03T03:10:22.500Z,6.13
2022-08-03T03:12:52.361Z,8.10
2022-08-03T03:15:20.388Z,6.60
2022-08-03T03:17:51.268Z,7.65
2022-08-03T03:20:29.440Z,9.20
2022-08-03T03:23:00.974Z,9.52
2022-08-03T03:25:29.865Z,9.68
2022-08-03T03:27:58.152Z,7.70
2022-08-03T03:30:26.591Z,8.85
2022-08-03T03:32:56.281Z,8.93
2022-08-03T03:35:24.628Z,7.38
2022-08-03T03:37:53.300Z,7.53
2022-08-03T03:40:21.444Z,6.60
2022-08-03T03:42:50.347Z,6.80
2022-08-03T03:45:19.772Z,7.70
2022-08-03T03:47:48.134Z,6.50
2022-08-03T03:50:20.273Z,5.95
2022-08-03T03:52:48.065Z,9.43
2022-08-03T03:55:19.031Z,7.72
2022-08-03T03:57:47.587Z,5.82
2022-08-03T04:00:16.828Z,8.00
2022-08-03T04:02:44.952Z,6.38
2022-08-03T04:05:30.577Z,7.30
2022-08-03T04:08:19.690Z,7.60
2022-08-03T04:11:01.586Z,7.35
2022-08-03T04:13:32.997Z,7.80
2022-08-03T04:16:02.387Z,7.68
2022-08-03T04:18:33.593Z,8.30
2022-08-03T04:21:04.797Z,5.75
2022-08-03T04:23:36.850Z,9.98
2022-08-03T04:26:09.674Z,6.65
2022-08-03T04:28:41.134Z,6.38
2022-08-03T04:31:09.278Z,8.65
2022-08-03T04:33:39.528Z,6.30
2022-08-03T04:36:11.330Z,8.85
2022-08-03T04:38:48.179Z,7.05
2022-08-03T04:41:16.579Z,10.57
2022-08-03T04:43:45.478Z,8.50
2022-08-03T04:46:14.162Z,11.10
2022-08-03T04:48:44.731Z,7.35
2022-08-03T04:51:13.437Z,7.20
2022-08-03T04:53:44.369Z,8.13
2022-08-03T04:56:12.530Z,11.23
2022-08-03T04:58:40.438Z,6.65
2022-08-03T05:01:08.690Z,6.78
2022-08-03T05:03:36.578Z,7.45
2022-08-03T05:06:11.408Z,11.10
2022-08-03T05:08:46.411Z,8.52
2022-08-03T05:11:16.327Z,5.57
2022-08-03T05:13:44.440Z,6.55
2022-08-03T05:16:15.912Z,6.63
2022-08-03T05:18:46.187Z,8.75
2022-08-03T05:21:16.686Z,6.95
2022-08-03T05:23:44.916Z,6.78
2022-08-03T05:26:13.150Z,8.00
2022-08-03T05:28:50.829Z,6.50
2022-08-03T05:31:19.992Z,9.35
2022-08-03T05:33:48.979Z,6.15
2022-08-03T05:36:17.115Z,8.88
2022-08-03T05:38:44.886Z,8.02
2022-08-03T05:41:21.290Z,8.18
2022-08-03T05:43:52.637Z,8.75
2022-08-03T05:46:21.063Z,10.55
2022-08-03T05:48:48.913Z,9.20
2022-08-03T05:51:16.767Z,6.13
2022-08-03T05:53:45.314Z,8.18
2022-08-03T05:56:16.002Z,8.07
2022-08-03T05:58:46.093Z,8.27
2022-08-03T06:01:16.029Z,9.95
2022-08-03T06:03:43.935Z,16.38
2022-08-03T06:06:12.161Z,9.40
2022-08-03T06:08:40.592Z,9.68
2022-08-03T06:11:10.293Z,9.45
2022-08-03T06:13:38.141Z,9.68
2022-08-03T06:16:09.241Z,12.90
2022-08-03T06:18:38.952Z,10.38
2022-08-03T06:21:14.283Z,9.05
2022-08-03T06:23:53.333Z,9.80
2022-08-03T06:26:24.992Z,8.73
2022-08-03T06:28:54.567Z,8.50
2022-08-03T06:31:25.939Z,8.55
2022-08-03T06:34:34.225Z,8.85
2022-08-03T06:36:53.141Z,13.05
2022-08-03T06:39:23.453Z,11.60
2022-08-03T06:41:53.432Z,8.35
2022-08-03T06:44:21.339Z,6.68
2022-08-03T06:46:49.055Z,10.13
2022-08-03T06:49:18.846Z,9.02
2022-08-03T06:52:37.069Z,7.53
2022-08-03T06:54:37.145Z,5.60
2022-08-03T06:57:06.043Z,4.93
2022-08-03T07:00:09.092Z,4.53
2022-08-03T07:02:24.654Z,5.07
2022-08-03T07:04:58.026Z,8.63
2022-08-03T07:07:25.886Z,8.05
2022-08-03T07:09:57.019Z,4.60
2022-08-03T07:12:27.178Z,6.93
2022-08-03T07:15:01.208Z,4.20
2022-08-03T07:17:30.954Z,7.70
2022-08-03T07:20:01.315Z,5.28
2022-08-03T07:22:29.381Z,5.15
2022-08-03T07:24:57.573Z,5.25
2022-08-03T07:27:28.164Z,4.15
2022-08-03T07:29:56.191Z,4.32
2022-08-03T07:32:25.768Z,5.85
2022-08-03T07:34:58.292Z,5.93
2022-08-03T07:37:30.346Z,5.20
2022-08-03T07:39:58.372Z,6.55
2022-08-03T07:42:26.190Z,4.50
2022-08-03T07:44:54.015Z,5.75
2022-08-03T07:47:23.962Z,5.60
2022-08-03T07:49:51.820Z,5.68
2022-08-03T07:52:36.941Z,4.88
2022-08-03T07:55:07.476Z,3.15
2022-08-03T07:57:36.158Z,4.22
2022-08-03T08:00:06.513Z,4.75
2022-08-03T08:02:43.905Z,3.95
2022-08-03T08:05:12.571Z,3.53
2022-08-03T08:07:40.961Z,5.72
2022-08-03T08:10:11.627Z,3.90
2022-08-03T08:12:41.371Z,4.28
2022-08-03T08:15:10.139Z,3.72
2022-08-03T08:17:46.475Z,6.53
2022-08-03T08:20:18.900Z,4.78
2022-08-03T08:22:58.096Z,5.90
2022-08-03T08:25:27.494Z,4.03
2022-08-03T08:28:31.032Z,3.25
2022-08-03T08:30:43.777Z,4.63
2022-08-03T08:33:22.449Z,5.18
2022-08-03T08:35:53.062Z,4.63
2022-08-03T08:38:21.208Z,3.05
2022-08-03T08:40:50.596Z,5.72
2022-08-03T08:43:18.516Z,5.30
2022-08-03T08:45:47.413Z,6.18
2022-08-03T08:48:16.536Z,4.45
2022-08-03T08:50:45.018Z,5.32
2022-08-03T08:53:17.583Z,4.20
2022-08-03T08:55:59.419Z,3.25
2022-08-03T08:58:33.816Z,3.42
2022-08-03T09:01:01.756Z,3.30
2022-08-03T09:03:30.938Z,4.15
2022-08-03T09:06:01.317Z,2.55
2022-08-03T09:08:30.346Z,5.13
2022-08-03T09:10:58.333Z,5.07
2022-08-03T09:13:26.411Z,3.75
2022-08-03T09:16:15.243Z,3.50
2022-08-03T09:18:44.154Z,3.50
2022-08-03T09:21:32.301Z,4.75
2022-08-03T09:24:05.196Z,4.47
2022-08-03T09:26:35.709Z,6.53
2022-08-03T09:29:10.903Z,4.43
2022-08-03T09:31:46.455Z,8.65
2022-08-03T09:34:16.655Z,6.47
2022-08-03T09:36:48.661Z,7.35
2022-08-03T09:39:17.762Z,4.85
2022-08-03T09:41:47.166Z,3.28
2022-08-03T09:44:24.663Z,5.00
2022-08-03T09:46:57.235Z,3.42
2022-08-03T09:49:25.865Z,4.65
2022-08-03T09:52:31.467Z,2.42
2022-08-03T09:54:42.422Z,5.55
2022-08-03T09:57:20.884Z,4.35
2022-08-03T09:59:48.817Z,3.88
2022-08-03T10:02:25.428Z,3.58
2022-08-03T10:04:54.156Z,4.57
2022-08-03T10:07:23.860Z,13.25
2022-08-03T10:09:56.641Z,4.50
2022-08-03T10:12:25.312Z,7.55
2022-08-03T10:14:53.952Z,3.50
2022-08-03T10:17:22.869Z,6.20
2022-08-03T10:19:52.188Z,2.55
2022-08-03T10:22:23.480Z,3.95
2022-08-03T10:24:56.816Z,5.35
2022-08-03T10:27:25.872Z,2.90
2022-08-03T10:29:56.301Z,4.07
2022-08-03T10:32:29.776Z,3.75
2022-08-03T10:35:19.135Z,7.32
2022-08-03T10:37:57.184Z,3.78
2022-08-03T10:43:20.912Z,4.53
2022-08-03T10:45:49.249Z,4.20
2022-08-03T10:48:18.313Z,3.13
2022-08-03T10:50:49.505Z,3.92
2022-08-03T10:53:18.661Z,3.75
2022-08-03T10:56:05.772Z,3.92
2022-08-03T10:58:53.483Z,1.65
2022-08-03T11:01:58.799Z,4.03
2022-08-03T11:04:29.263Z,2.08
2022-08-03T11:07:23.538Z,3.35
2022-08-03T11:09:52.702Z,2.65
2022-08-03T11:12:29.973Z,5.68
2022-08-03T11:15:02.330Z,2.65
2022-08-03T11:17:30.256Z,6.13
2022-08-03T11:19:58.708Z,4.75
2022-08-03T11:22:54.059Z,2.83
2022-08-03T11:25:54.756Z,4.03
2022-08-03T11:28:36.876Z,3.50
2022-08-03T11:31:51.460Z,5.63
2022-08-03T11:34:19.766Z,2.97
2022-08-03T11:37:23.573Z,2.92
2022-08-03T11:39:56.942Z,6.45
2022-08-03T11:42:48.259Z,4.13
2022-08-03T11:45:16.780Z,6.43
2022-08-03T11:47:50.764Z,3.55
2022-08-03T11:50:21.145Z,4.57
2022-08-03T11:52:50.157Z,2.95
2022-08-03T11:55:22.103Z,4.40
2022-08-03T11:58:58.059Z,4.63
2022-08-03T12:00:38.276Z,2.55
2022-08-03T12:03:09.170Z,3.13
2022-08-03T12:05:39.388Z,2.90
2022-08-03T12:08:08.019Z,3.13
2022-08-03T12:10:38.215Z,1.83
2022-08-03T12:14:45.122Z,1.95
2022-08-03T12:15:59.168Z,5.38
2022-08-03T12:18:27.143Z,3.40
2022-08-03T12:21:05.832Z,2.65
2022-08-03T12:23:37.406Z,3.40
2022-08-03T12:26:08.636Z,2.78
2022-08-03T12:28:38.434Z,3.25
2022-08-03T12:31:09.305Z,3.60
2022-08-03T12:34:02.820Z,5.72
2022-08-03T12:36:32.117Z,4.00
2022-08-03T12:39:02.429Z,2.47
2022-08-03T12:41:35.834Z,6.50
2022-08-03T12:44:04.567Z,2.53
2022-08-03T12:46:34.340Z,1.95
2022-08-03T12:49:05.829Z,2.70
2022-08-03T12:51:35.681Z,3.47
2022-08-03T12:54:04.879Z,4.60
2022-08-03T12:56:34.346Z,2.85
2022-08-03T12:59:02.319Z,3.47
2022-08-03T13:01:38.139Z,4.57
2022-08-03T13:04:30.345Z,3.00
2022-08-03T13:07:03.407Z,1.80
2022-08-03T13:09:41.595Z,3.75
2022-08-03T13:12:13.301Z,2.13
2022-08-03T13:14:41.576Z,2.13
2022-08-03T13:17:12.425Z,2.75
2022-08-03T13:19:41.207Z,2.03
2022-08-03T13:22:13.433Z,2.30
2022-08-03T13:24:41.368Z,4.28
2022-08-03T13:28:04.928Z,1.77
2022-08-03T13:29:59.476Z,1.92
2022-08-03T13:32:27.774Z,5.35
2022-08-03T13:34:55.670Z,2.88
2022-08-03T13:37:23.847Z,6.65
2022-08-03T13:39:58.996Z,3.17
2022-08-03T13:42:31.220Z,3.05
2022-08-03T13:44:59.569Z,2.20
2022-08-03T13:47:27.656Z,1.95
2022-08-03T13:50:01.763Z,2.83
2022-08-03T13:52:31.668Z,3.60
2022-08-03T13:54:59.825Z,3.88
2022-08-03T13:58:03.796Z,2.50
2022-08-03T14:00:26.446Z,2.65
2022-08-03T14:03:02.946Z,2.85
2022-08-03T14:05:35.130Z,4.63
2022-08-03T14:08:05.291Z,3.53
2022-08-03T14:10:35.011Z,3.25
2022-08-03T14:13:02.810Z,3.47
2022-08-03T14:15:37.557Z,4.60
2022-08-03T14:18:06.737Z,3.05
2022-08-03T14:20:36.856Z,4.10
2022-08-03T14:23:07.580Z,2.90
2022-08-03T14:25:43.604Z,2.83
2022-08-03T14:28:18.913Z,1.80
2022-08-03T14:30:48.641Z,1.83
2022-08-03T14:33:20.069Z,4.57
2022-08-03T14:35:50.421Z,2.38
2022-08-03T14:38:19.153Z,3.95
2022-08-03T14:40:47.535Z,3.17
2022-08-03T14:43:17.777Z,1.83
2022-08-03T14:45:45.580Z,5.15
2022-08-03T14:50:27.964Z,3.33
2022-08-03T14:51:06.611Z,4.30
2022-08-03T14:53:35.703Z,4.07
2022-08-03T14:56:07.965Z,2.65
2022-08-03T14:58:38.194Z,2.65
2022-08-03T15:02:06.335Z,1.75
2022-08-03T15:03:56.802Z,3.42
2022-08-03T15:06:24.643Z,3.20
2022-08-03T15:09:20.906Z,3.45
2022-08-03T15:11:40.210Z,2.45
2022-08-03T15:14:09.537Z,3.90
2022-08-03T15:16:37.857Z,3.10
2022-08-03T15:20:01.316Z,1.95
2022-08-03T15:21:54.998Z,2.97
2022-08-03T15:24:22.947Z,1.70
2022-08-03T15:26:53.534Z,2.03
2022-08-03T15:30:07.257Z,2.30
2022-08-03T15:32:09.776Z,2.92
2022-08-03T15:34:39.167Z,2.05
2022-08-03T15:37:12.857Z,2.22
2022-08-03T15:39:59.621Z,2.35
2022-08-03T15:42:29.553Z,3.78
2022-08-03T15:44:57.404Z,3.33
2022-08-03T15:47:25.383Z,2.35
2022-08-03T15:49:54.618Z,2.67
2022-08-03T15:52:22.633Z,1.83
2022-08-03T15:54:50.750Z,3.33
2022-08-03T15:57:19.097Z,2.10
2022-08-03T15:59:47.232Z,3.60
2022-08-03T16:02:15.360Z,2.45
2022-08-03T16:04:43.573Z,6.35
2022-08-03T16:07:15.708Z,2.47
2022-08-03T16:09:44.323Z,4.22
2022-08-03T16:12:16.327Z,2.85
2022-08-03T16:14:53.769Z,2.60
2022-08-03T16:17:22.629Z,2.03
2022-08-03T16:19:50.757Z,2.35
2022-08-03T16:22:23.035Z,2.38
2022-08-03T16:24:51.849Z,2.35
2022-08-03T16:27:37.328Z,2.90
2022-08-03T16:30:10.524Z,3.42
2022-08-03T16:32:39.803Z,2.97
2022-08-03T16:35:08.445Z,3.05
2022-08-03T16:37:39.211Z,3.40
2022-08-03T16:40:19.161Z,2.47
2022-08-03T16:42:47.664Z,4.55
2022-08-03T16:45:15.703Z,4.05
2022-08-03T16:47:43.600Z,3.58
2022-08-03T16:50:19.020Z,3.63
2022-08-03T16:52:48.842Z,3.10
2022-08-03T16:55:42.893Z,2.15
2022-08-03T16:58:05.748Z,1.50
2022-08-03T17:00:41.518Z,3.67
2022-08-03T17:03:18.591Z,4.60
2022-08-03T17:05:49.686Z,2.72
2022-08-03T17:08:26.628Z,3.50
2022-08-03T17:10:56.076Z,2.80
2022-08-03T17:13:39.294Z,8.75
2022-08-03T17:16:12.088Z,4.63
2022-08-03T17:18:51.901Z,3.83
2022-08-03T17:21:25.862Z,3.78
2022-08-03T17:24:05.263Z,4.55
2022-08-03T17:26:44.771Z,2.08
2022-08-03T17:29:14.564Z,2.65
2022-08-03T17:31:49.065Z,4.25
2022-08-03T17:34:18.925Z,4.22
2022-08-03T17:37:03.688Z,2.83
2022-08-03T17:42:30.678Z,3.35
2022-08-03T17:45:08.302Z,2.70
2022-08-03T17:47:43.860Z,2.55
2022-08-03T17:50:25.076Z,2.58
2022-08-03T17:53:07.510Z,5.43
2022-08-03T17:55:54.863Z,4.53
2022-08-03T17:58:39.625Z,4.70
2022-08-03T18:02:00.316Z,3.90
2022-08-03T18:04:30.019Z,3.35
2022-08-03T18:07:11.279Z,3.75
2022-08-03T18:10:04.538Z,2.30
2022-08-03T18:12:51.885Z,2.90
2022-08-03T18:15:26.025Z,4.45
2022-08-03T18:18:02.008Z,2.92
2022-08-03T18:20:40.895Z,3.13
2022-08-03T18:23:25.121Z,2.53
2022-08-03T18:26:01.381Z,1.45
2022-08-03T18:28:32.237Z,2.80
2022-08-03T18:31:04.261Z,2.20
2022-08-03T18:34:17.896Z,2.83
2022-08-03T18:36:29.929Z,3.67
2022-08-03T18:39:00.222Z,2.03
2022-08-03T18:41:33.530Z,3.65
2022-08-03T18:44:08.185Z,2.10
2022-08-03T18:46:51.430Z,5.07
2022-08-03T18:49:42.312Z,2.10
2022-08-03T18:52:17.947Z,1.63
2022-08-03T18:55:06.564Z,2.38
2022-08-03T18:57:43.364Z,1.80
2022-08-03T19:00:16.158Z,2.03
2022-08-03T19:02:50.232Z,2.38
2022-08-03T19:05:21.438Z,1.50
2022-08-03T19:07:58.424Z,3.58
2022-08-03T19:10:32.137Z,2.85
2022-08-03T19:13:05.423Z,5.45
2022-08-03T19:15:51.394Z,4.38
2022-08-03T19:18:22.499Z,4.18
2022-08-03T19:20:54.613Z,3.70
2022-08-03T19:23:24.940Z,3.15
2022-08-03T19:25:53.119Z,4.55
2022-08-03T19:31:12.859Z,2.03
2022-08-03T19:33:57.433Z,2.88
2022-08-03T19:36:28.603Z,4.75
2022-08-03T19:38:57.388Z,3.75
2022-08-03T19:41:41.649Z,3.17
2022-08-03T19:46:55.082Z,4.30
2022-08-03T19:50:06.201Z,8.82
2022-08-03T19:52:24.182Z,7.25
2022-08-03T19:54:55.243Z,2.22
2022-08-03T19:57:27.049Z,4.07
2022-08-03T19:59:57.305Z,3.05
2022-08-03T20:02:28.058Z,2.92
2022-08-03T20:04:59.645Z,5.65
2022-08-03T20:07:30.693Z,4.45
2022-08-03T20:10:01.371Z,4.57
2022-08-03T20:12:34.391Z,6.10
2022-08-03T20:15:09.049Z,5.55
2022-08-03T20:17:56.063Z,2.45
2022-08-03T20:20:28.084Z,5.10
2022-08-03T20:22:58.786Z,5.35
2022-08-03T20:25:38.579Z,6.55
2022-08-03T20:28:14.242Z,4.07
2022-08-03T20:30:47.215Z,7.40
2022-08-03T20:33:18.992Z,5.35
2022-08-03T20:35:49.640Z,4.35
2022-08-03T20:38:19.476Z,4.70
2022-08-03T20:40:48.488Z,4.60
2022-08-03T20:43:16.782Z,3.88
2022-08-03T20:46:00.028Z,2.22
2022-08-03T20:48:37.888Z,6.18
2022-08-03T20:51:19.391Z,3.42
2022-08-03T20:54:00.505Z,2.63
2022-08-03T20:56:33.660Z,2.42
2022-08-03T20:59:03.627Z,2.45
2022-08-03T21:01:35.950Z,3.55
2022-08-03T21:04:07.212Z,2.92
2022-08-03T21:06:53.408Z,3.95
2022-08-03T21:09:33.388Z,2.65
2022-08-03T21:12:13.316Z,2.83
2022-08-03T21:13:10.182Z,3.97
2022-08-03T21:14:51.883Z,4.90
2022-08-03T21:17:39.984Z,4.07
2022-08-03T21:20:12.099Z,4.53
2022-08-03T21:22:43.526Z,6.00
2022-08-03T21:25:15.038Z,4.72
2022-08-03T21:27:43.345Z,2.65
2022-08-03T21:30:12.707Z,4.20
2022-08-03T21:32:45.368Z,6.57
2022-08-03T21:35:15.968Z,3.83
2022-08-03T21:37:44.982Z,3.45
2022-08-03T21:40:15.384Z,3.00
2022-08-03T21:42:44.885Z,4.15
2022-08-03T21:45:17.437Z,4.22
2022-08-03T21:47:48.398Z,5.90
2022-08-03T21:50:18.197Z,3.92
2022-08-03T21:52:48.471Z,5.65
2022-08-03T21:55:18.590Z,2.65
2022-08-03T21:57:52.637Z,4.82
2022-08-03T22:00:22.895Z,3.78
2022-08-03T22:02:55.294Z,2.10
2022-08-03T22:05:29.135Z,4.07
2022-08-03T22:08:10.716Z,4.47
2022-08-03T22:10:38.919Z,4.60
2022-08-03T22:13:07.245Z,3.92
2022-08-03T22:15:35.252Z,3.63
2022-08-03T22:18:03.648Z,2.75
2022-08-03T22:20:33.225Z,2.40
2022-08-03T22:23:03.749Z,2.40
2022-08-03T22:25:33.538Z,5.60
2022-08-03T22:28:03.707Z,3.25
2022-08-03T22:30:33.095Z,2.97
2022-08-03T22:33:02.488Z,6.93
2022-08-03T22:35:48.054Z,4.00
2022-08-03T22:38:17.358Z,9.20
2022-08-03T22:40:45.926Z,3.80
2022-08-03T22:43:13.884Z,3.38
2022-08-03T22:46:11.223Z,4.07
2022-08-03T22:48:35.408Z,9.00
2022-08-03T22:51:10.686Z,6.10
2022-08-03T22:53:40.032Z,3.67
2022-08-03T22:56:08.681Z,5.35
2022-08-03T22:58:36.548Z,3.78
2022-08-03T23:01:06.918Z,8.25
2022-08-03T23:03:59.069Z,5.25
2022-08-03T23:06:32.403Z,3.05
2022-08-03T23:09:00.671Z,3.33
2022-08-03T23:11:29.548Z,3.75
2022-08-03T23:13:59.230Z,2.90
2022-08-03T23:16:29.504Z,3.13
2022-08-03T23:18:59.179Z,4.93
2022-08-03T23:21:53.326Z,3.72
2022-08-03T23:24:29.836Z,2.75
2022-08-03T23:26:58.717Z,3.05
2022-08-03T23:29:29.899Z,5.22
2022-08-03T23:31:59.353Z,3.60
2022-08-03T23:34:46.847Z,3.30
2022-08-03T23:37:16.351Z,2.70
2022-08-03T23:39:46.479Z,3.13
2022-08-03T23:42:16.237Z,3.22
2022-08-03T23:44:45.748Z,3.85
2022-08-03T23:47:13.753Z,3.15
2022-08-03T23:49:41.697Z,2.58
2022-08-03T23:52:11.302Z,3.47
2022-08-03T23:54:52.252Z,3.42
2022-08-03T23:57:29.597Z,4.82
